sensor_id;sensor_type;location;lat;lon;timestamp;temperature;humidity
18317;DHT22;9284;52.298;21.164;2023-04-03T03:12:38;-0.50;99.90
18317;DHT22;9284;52.298;21.164;2023-04-03T03:15:08;-0.50;99.90
18317;DHT22;9284;52.298;21.164;2023-04-03T03:17:38;-0.50;99.90
18317;DHT22;9284;52.298;21.164;2023-04-03T03:20:12;-0.60;99.90
18317;DHT22;9284;52.298;21.164;2023-04-03T03:22:42;-0.60;99.90
18317;DHT22;9284;52.298;21.164;2023-04-03T03:25:10;-0.60;99.90
18317;DHT22;9284;52.298;21.164;2023-04-03T03:27:40;-0.70;99.90
18317;DHT22;9284;52.298;21.164;2023-04-03T03:30:09;-0.70;99.90
18317;DHT22;9284;52.298;21.164;2023-04-03T03:32:37;-0.70;99.90
18317;DHT22;9284;52.298;21.164;2023-04-03T03:35:06;-0.80;99.90
18317;DHT22;9284;52.298;21.164;2023-04-03T03:37:37;-0.80;99.90
18317;DHT22;9284;52.298;21.164;2023-04-03T03:40:07;-0.90;99.90
18317;DHT22;9284;52.298;21.164;2023-04-03T03:42:36;-0.80;99.90
18317;DHT22;9284;52.298;21.164;2023-04-03T03:45:08;-0.80;99.90
18317;DHT22;9284;52.298;21.164;2023-04-03T03:47:37;-0.90;99.90
18317;DHT22;9284;52.298;21.164;2023-04-03T03:50:06;-0.90;1.00
18317;DHT22;9284;52.298;21.164;2023-04-03T03:52:35;-0.90;1.00
18317;DHT22;9284;52.298;21.164;2023-04-03T03:55:03;-0.90;1.00
18317;DHT22;9284;52.298;21.164;2023-04-03T03:57:34;-0.90;1.00
18317;DHT22;9284;52.298;21.164;2023-04-03T04:00:07;-0.90;1.00
18317;DHT22;9284;52.298;21.164;2023-04-03T04:02:41;-1.00;1.00
18317;DHT22;9284;52.298;21.164;2023-04-03T04:05:14;-0.90;1.00
18317;DHT22;9284;52.298;21.164;2023-04-03T04:07:42;-0.90;1.00
18317;DHT22;9284;52.298;21.164;2023-04-03T04:10:11;-1.00;1.00
18317;DHT22;9284;52.298;21.164;2023-04-03T04:12:42;-1.00;1.00
18317;DHT22;9284;52.298;21.164;2023-04-03T04:15:12;-1.10;1.00
18317;DHT22;9284;52.298;21.164;2023-04-03T04:17:40;-1.10;1.00
18317;DHT22;9284;52.298;21.164;2023-04-03T04:20:11;-1.00;1.00
18317;DHT22;9284;52.298;21.164;2023-04-03T04:22:40;-1.10;1.00
18317;DHT22;9284;52.298;21.164;2023-04-03T04:25:09;-1.10;1.00
18317;DHT22;9284;52.298;21.164;2023-04-03T04:27:39;-1.10;1.00
18317;DHT22;9284;52.298;21.164;2023-04-03T04:30:08;-1.10;1.00
18317;DHT22;9284;52.298;21.164;2023-04-03T04:32:39;-1.10;1.00
18317;DHT22;9284;52.298;21.164;2023-04-03T04:35:08;-1.10;1.00
18317;DHT22;9284;52.298;21.164;2023-04-03T04:37:40;-1.00;1.00
18317;DHT22;9284;52.298;21.164;2023-04-03T04:40:09;-1.10;1.00
18317;DHT22;9284;52.298;21.164;2023-04-03T04:42:38;-1.10;1.00
18317;DHT22;9284;52.298;21.164;2023-04-03T04:45:07;-1.00;1.00
18317;DHT22;9284;52.298;21.164;2023-04-03T04:47:39;-1.00;1.00
18317;DHT22;9284;52.298;21.164;2023-04-03T04:50:09;-1.00;1.00
18317;DHT22;9284;52.298;21.164;2023-04-03T04:52:39;-1.00;1.00
18317;DHT22;9284;52.298;21.164;2023-04-03T04:55:08;-1.00;1.00
18317;DHT22;9284;52.298;21.164;2023-04-03T04:57:36;-1.00;1.00
18317;DHT22;9284;52.298;21.164;2023-04-03T05:00:07;-0.90;1.00
18317;DHT22;9284;52.298;21.164;2023-04-03T05:02:36;-0.90;1.00
18317;DHT22;9284;52.298;21.164;2023-04-03T05:05:07;-0.80;1.00
18317;DHT22;9284;52.298;21.164;2023-04-03T05:07:37;-0.80;1.00
18317;DHT22;9284;52.298;21.164;2023-04-03T05:10:07;-0.80;1.00
18317;DHT22;9284;52.298;21.164;2023-04-03T05:12:36;-0.80;99.90
18317;DHT22;9284;52.298;21.164;2023-04-03T05:15:06;-0.70;1.00
18317;DHT22;9284;52.298;21.164;2023-04-03T05:17:35;-0.70;99.90
18317;DHT22;9284;52.298;21.164;2023-04-03T05:20:07;-0.70;1.00
18317;DHT22;9284;52.298;21.164;2023-04-03T05:22:37;-0.60;99.90
18317;DHT22;9284;52.298;21.164;2023-04-03T05:25:08;-0.60;99.90
18317;DHT22;9284;52.298;21.164;2023-04-03T05:27:39;-0.60;99.90
18317;DHT22;9284;52.298;21.164;2023-04-03T05:30:08;-0.50;99.90
18317;DHT22;9284;52.298;21.164;2023-04-03T05:32:39;-0.50;99.90
18317;DHT22;9284;52.298;21.164;2023-04-03T05:35:22;-0.40;99.90
18317;DHT22;9284;52.298;21.164;2023-04-03T05:37:56;-0.40;99.90
18317;DHT22;9284;52.298;21.164;2023-04-03T05:40:24;-0.30;99.90
18317;DHT22;9284;52.298;21.164;2023-04-03T05:42:55;-0.30;99.90
18317;DHT22;9284;52.298;21.164;2023-04-03T05:45:26;-0.30;99.90
18317;DHT22;9284;52.298;21.164;2023-04-03T05:47:56;-0.20;99.90
18317;DHT22;9284;52.298;21.164;2023-04-03T05:50:26;-0.10;99.90
18317;DHT22;9284;52.298;21.164;2023-04-03T05:52:57;0.00;99.90
18317;DHT22;9284;52.298;21.164;2023-04-03T05:55:28;0.10;99.90
18317;DHT22;9284;52.298;21.164;2023-04-03T05:57:56;0.30;99.90
18317;DHT22;9284;52.298;21.164;2023-04-03T06:00:25;0.50;99.90
18317;DHT22;9284;52.298;21.164;2023-04-03T06:03:00;0.80;99.90
18317;DHT22;9284;52.298;21.164;2023-04-03T06:05:30;1.10;99.90
18317;DHT22;9284;52.298;21.164;2023-04-03T06:07:58;1.20;99.90
18317;DHT22;9284;52.298;21.164;2023-04-03T06:10:27;1.30;99.90
18317;DHT22;9284;52.298;21.164;2023-04-03T06:12:55;1.60;99.90
18317;DHT22;9284;52.298;21.164;2023-04-03T06:15:23;1.60;99.90
18317;DHT22;9284;52.298;21.164;2023-04-03T06:17:52;2.00;99.90
18317;DHT22;9284;52.298;21.164;2023-04-03T06:20:20;2.60;99.90
18317;DHT22;9284;52.298;21.164;2023-04-03T06:22:50;2.80;99.90
18317;DHT22;9284;52.298;21.164;2023-04-03T06:25:19;3.60;99.90
18317;DHT22;9284;52.298;21.164;2023-04-03T06:27:48;3.70;99.90
18317;DHT22;9284;52.298;21.164;2023-04-03T06:30:16;3.30;99.90
18317;DHT22;9284;52.298;21.164;2023-04-03T06:32:44;2.50;99.90
18317;DHT22;9284;52.298;21.164;2023-04-03T06:35:13;2.30;99.90
18317;DHT22;9284;52.298;21.164;2023-04-03T06:37:41;2.30;99.90
18317;DHT22;9284;52.298;21.164;2023-04-03T06:40:15;2.70;99.90
18317;DHT22;9284;52.298;21.164;2023-04-03T06:42:46;2.90;99.90
18317;DHT22;9284;52.298;21.164;2023-04-03T06:45:17;3.30;99.90
18317;DHT22;9284;52.298;21.164;2023-04-03T06:47:46;3.60;99.90
18317;DHT22;9284;52.298;21.164;2023-04-03T06:50:14;3.90;99.90
18317;DHT22;9284;52.298;21.164;2023-04-03T06:52:43;3.40;99.90
18317;DHT22;9284;52.298;21.164;2023-04-03T06:55:13;3.90;99.90
18317;DHT22;9284;52.298;21.164;2023-04-03T06:57:41;4.30;99.90
18317;DHT22;9284;52.298;21.164;2023-04-03T07:00:11;4.80;99.90
18317;DHT22;9284;52.298;21.164;2023-04-03T07:02:40;4.60;99.90
18317;DHT22;9284;52.298;21.164;2023-04-03T07:05:09;5.00;99.90
18317;DHT22;9284;52.298;21.164;2023-04-03T07:07:37;5.20;99.90
18317;DHT22;9284;52.298;21.164;2023-04-03T07:10:07;5.00;99.90
18317;DHT22;9284;52.298;21.164;2023-04-03T07:12:38;5.40;97.80
18317;DHT22;9284;52.298;21.164;2023-04-03T07:15:07;6.00;65.00
18317;DHT22;9284;52.298;21.164;2023-04-03T07:17:36;6.10;41.30
18317;DHT22;9284;52.298;21.164;2023-04-03T07:20:06;6.40;38.20
18317;DHT22;9284;52.298;21.164;2023-04-03T07:22:34;6.50;49.70
18317;DHT22;9284;52.298;21.164;2023-04-03T07:25:04;6.70;47.30
18317;DHT22;9284;52.298;21.164;2023-04-03T07:27:34;6.70;55.10
18317;DHT22;9284;52.298;21.164;2023-04-03T07:30:05;6.60;58.10
18317;DHT22;9284;52.298;21.164;2023-04-03T07:32:33;6.80;47.20
18317;DHT22;9284;52.298;21.164;2023-04-03T07:35:02;6.60;59.70
18317;DHT22;9284;52.298;21.164;2023-04-03T07:37:30;6.20;71.00
18317;DHT22;9284;52.298;21.164;2023-04-03T07:39:59;5.70;69.90
18317;DHT22;9284;52.298;21.164;2023-04-03T07:42:30;6.10;72.20
18317;DHT22;9284;52.298;21.164;2023-04-03T07:44:58;6.70;70.20
18317;DHT22;9284;52.298;21.164;2023-04-03T07:47:29;6.70;76.60
18317;DHT22;9284;52.298;21.164;2023-04-03T07:49:58;6.80;91.80
18317;DHT22;9284;52.298;21.164;2023-04-03T07:52:26;6.90;68.90
18317;DHT22;9284;52.298;21.164;2023-04-03T07:54:55;7.40;73.70
18317;DHT22;9284;52.298;21.164;2023-04-03T07:57:23;7.30;88.50
18317;DHT22;9284;52.298;21.164;2023-04-03T07:59:51;8.00;94.80
18317;DHT22;9284;52.298;21.164;2023-04-03T08:02:20;7.80;99.90
18317;DHT22;9284;52.298;21.164;2023-04-03T08:04:50;7.40;81.80
18317;DHT22;9284;52.298;21.164;2023-04-03T08:07:18;7.60;93.00
18317;DHT22;9284;52.298;21.164;2023-04-03T08:09:48;7.30;92.80
18317;DHT22;9284;52.298;21.164;2023-04-03T08:12:16;6.90;90.90
18317;DHT22;9284;52.298;21.164;2023-04-03T08:14:47;6.20;80.90
18317;DHT22;9284;52.298;21.164;2023-04-03T08:17:15;5.90;90.50
18317;DHT22;9284;52.298;21.164;2023-04-03T08:19:44;6.50;87.50
18317;DHT22;9284;52.298;21.164;2023-04-03T08:22:16;6.90;82.70
18317;DHT22;9284;52.298;21.164;2023-04-03T08:24:45;6.90;85.50
18317;DHT22;9284;52.298;21.164;2023-04-03T08:27:25;6.80;86.20
18317;DHT22;9284;52.298;21.164;2023-04-03T08:29:54;7.20;85.20
18317;DHT22;9284;52.298;21.164;2023-04-03T08:32:24;6.80;88.10
18317;DHT22;9284;52.298;21.164;2023-04-03T08:34:53;6.20;77.20
18317;DHT22;9284;52.298;21.164;2023-04-03T08:37:22;5.80;74.80
18317;DHT22;9284;52.298;21.164;2023-04-03T08:39:51;5.70;69.20
18317;DHT22;9284;52.298;21.164;2023-04-03T08:42:32;5.60;72.80
18317;DHT22;9284;52.298;21.164;2023-04-03T08:45:07;5.40;67.00
18317;DHT22;9284;52.298;21.164;2023-04-03T08:47:40;5.90;74.90
18317;DHT22;9284;52.298;21.164;2023-04-03T08:50:14;5.70;70.60
18317;DHT22;9284;52.298;21.164;2023-04-03T08:52:48;5.30;75.60
18317;DHT22;9284;52.298;21.164;2023-04-03T08:55:23;5.40;76.00
18317;DHT22;9284;52.298;21.164;2023-04-03T08:57:59;5.30;69.30
18317;DHT22;9284;52.298;21.164;2023-04-03T09:00:32;5.20;62.00
18317;DHT22;9284;52.298;21.164;2023-04-03T09:03:02;5.10;65.90
18317;DHT22;9284;52.298;21.164;2023-04-03T09:05:43;4.80;68.60
18317;DHT22;9284;52.298;21.164;2023-04-03T09:08:22;4.50;71.10
18317;DHT22;9284;52.298;21.164;2023-04-03T09:10:52;4.70;66.60
18317;DHT22;9284;52.298;21.164;2023-04-03T09:13:27;4.90;69.50
18317;DHT22;9284;52.298;21.164;2023-04-03T09:15:59;5.30;68.60
18317;DHT22;9284;52.298;21.164;2023-04-03T09:18:34;5.80;66.90
18317;DHT22;9284;52.298;21.164;2023-04-03T09:21:13;6.00;65.50
18317;DHT22;9284;52.298;21.164;2023-04-03T09:23:49;5.50;61.40
18317;DHT22;9284;52.298;21.164;2023-04-03T09:26:22;5.30;58.80
18317;DHT22;9284;52.298;21.164;2023-04-03T09:28:55;5.30;57.00
18317;DHT22;9284;52.298;21.164;2023-04-03T09:31:27;5.30;57.60
18317;DHT22;9284;52.298;21.164;2023-04-03T09:33:59;5.20;61.40
18317;DHT22;9284;52.298;21.164;2023-04-03T09:36:43;5.10;60.20
18317;DHT22;9284;52.298;21.164;2023-04-03T09:39:15;5.00;64.40
18317;DHT22;9284;52.298;21.164;2023-04-03T09:41:57;4.90;62.20
18317;DHT22;9284;52.298;21.164;2023-04-03T09:44:28;5.10;64.30
18317;DHT22;9284;52.298;21.164;2023-04-03T09:46:57;4.90;56.60
18317;DHT22;9284;52.298;21.164;2023-04-03T09:49:26;4.60;55.70
18317;DHT22;9284;52.298;21.164;2023-04-03T09:51:54;4.90;53.40
18317;DHT22;9284;52.298;21.164;2023-04-03T09:54:35;5.20;54.20
18317;DHT22;9284;52.298;21.164;2023-04-03T09:57:12;5.10;53.20
18317;DHT22;9284;52.298;21.164;2023-04-03T09:59:45;5.40;52.30
18317;DHT22;9284;52.298;21.164;2023-04-03T10:02:28;5.50;55.80
18317;DHT22;9284;52.298;21.164;2023-04-03T10:04:58;5.30;55.20
18317;DHT22;9284;52.298;21.164;2023-04-03T10:07:38;5.00;59.50
18317;DHT22;9284;52.298;21.164;2023-04-03T10:10:21;4.60;57.90
18317;DHT22;9284;52.298;21.164;2023-04-03T10:13:04;5.00;61.40
18317;DHT22;9284;52.298;21.164;2023-04-03T10:15:39;4.90;58.10
18317;DHT22;9284;52.298;21.164;2023-04-03T10:18:25;5.20;54.90
18317;DHT22;9284;52.298;21.164;2023-04-03T10:21:02;5.20;66.40
18317;DHT22;9284;52.298;21.164;2023-04-03T10:23:42;4.50;68.50
18317;DHT22;9284;52.298;21.164;2023-04-03T10:26:21;4.70;74.30
18317;DHT22;9284;52.298;21.164;2023-04-03T10:28:57;4.70;70.40
18317;DHT22;9284;52.298;21.164;2023-04-03T10:31:34;4.50;78.70
18317;DHT22;9284;52.298;21.164;2023-04-03T10:34:06;4.60;77.20
18317;DHT22;9284;52.298;21.164;2023-04-03T10:36:45;4.80;71.60
18317;DHT22;9284;52.298;21.164;2023-04-03T10:39:21;4.70;74.90
18317;DHT22;9284;52.298;21.164;2023-04-03T10:42:02;4.80;66.50
18317;DHT22;9284;52.298;21.164;2023-04-03T10:45:08;4.90;61.20
18317;DHT22;9284;52.298;21.164;2023-04-03T10:47:48;4.60;58.00
18317;DHT22;9284;52.298;21.164;2023-04-03T10:50:38;5.10;64.40
18317;DHT22;9284;52.298;21.164;2023-04-03T10:53:16;5.80;65.90
18317;DHT22;9284;52.298;21.164;2023-04-03T10:55:52;6.10;67.30
18317;DHT22;9284;52.298;21.164;2023-04-03T10:58:28;6.20;75.30
18317;DHT22;9284;52.298;21.164;2023-04-03T11:01:03;6.60;78.60
18317;DHT22;9284;52.298;21.164;2023-04-03T11:03:36;6.70;78.30
18317;DHT22;9284;52.298;21.164;2023-04-03T11:06:08;6.30;76.90
18317;DHT22;9284;52.298;21.164;2023-04-03T11:08:42;6.30;75.60
18317;DHT22;9284;52.298;21.164;2023-04-03T11:11:15;5.80;71.60
18317;DHT22;9284;52.298;21.164;2023-04-03T11:13:50;5.40;65.60
18317;DHT22;9284;52.298;21.164;2023-04-03T11:16:24;5.70;61.20
18317;DHT22;9284;52.298;21.164;2023-04-03T11:18:56;5.60;57.30
18317;DHT22;9284;52.298;21.164;2023-04-03T11:21:28;5.30;55.50
18317;DHT22;9284;52.298;21.164;2023-04-03T11:24:03;5.50;62.80
18317;DHT22;9284;52.298;21.164;2023-04-03T11:26:38;6.20;66.70
18317;DHT22;9284;52.298;21.164;2023-04-03T11:29:12;6.70;69.80
18317;DHT22;9284;52.298;21.164;2023-04-03T11:32:20;6.50;66.20
18317;DHT22;9284;52.298;21.164;2023-04-03T11:34:56;6.00;66.00
18317;DHT22;9284;52.298;21.164;2023-04-03T11:37:31;5.60;68.70
18317;DHT22;9284;52.298;21.164;2023-04-03T11:40:06;5.60;71.30
18317;DHT22;9284;52.298;21.164;2023-04-03T11:42:37;5.90;87.50
18317;DHT22;9284;52.298;21.164;2023-04-03T11:45:29;6.40;70.60
18317;DHT22;9284;52.298;21.164;2023-04-03T11:48:01;6.20;67.50
18317;DHT22;9284;52.298;21.164;2023-04-03T11:50:49;5.60;68.50
18317;DHT22;9284;52.298;21.164;2023-04-03T11:53:35;5.80;72.00
18317;DHT22;9284;52.298;21.164;2023-04-03T12:01:52;6.00;73.60
18317;DHT22;9284;52.298;21.164;2023-04-03T12:04:23;6.00;71.50
18317;DHT22;9284;52.298;21.164;2023-04-03T12:07:12;5.80;69.50
18317;DHT22;9284;52.298;21.164;2023-04-03T12:10:13;5.70;73.90
18317;DHT22;9284;52.298;21.164;2023-04-03T12:13:01;5.80;74.20
18317;DHT22;9284;52.298;21.164;2023-04-03T12:15:51;5.60;68.80
18317;DHT22;9284;52.298;21.164;2023-04-03T12:18:56;5.30;64.50
18317;DHT22;9284;52.298;21.164;2023-04-03T12:24:27;5.60;67.90
18317;DHT22;9284;52.298;21.164;2023-04-03T12:27:16;5.80;72.20
18317;DHT22;9284;52.298;21.164;2023-04-03T12:29:53;6.10;73.60
18317;DHT22;9284;52.298;21.164;2023-04-03T12:32:40;6.10;71.90
18317;DHT22;9284;52.298;21.164;2023-04-03T12:35:28;5.70;70.90
18317;DHT22;9284;52.298;21.164;2023-04-03T12:38:20;5.40;71.30
18317;DHT22;9284;52.298;21.164;2023-04-03T12:40:55;5.60;78.10
18317;DHT22;9284;52.298;21.164;2023-04-03T12:43:42;5.70;93.40
18317;DHT22;9284;52.298;21.164;2023-04-03T12:46:17;5.70;71.00
18317;DHT22;9284;52.298;21.164;2023-04-03T12:48:49;5.50;72.60
18317;DHT22;9284;52.298;21.164;2023-04-03T12:51:22;5.30;68.90
18317;DHT22;9284;52.298;21.164;2023-04-03T12:53:58;5.40;75.50
18317;DHT22;9284;52.298;21.164;2023-04-03T12:56:29;5.80;79.00
18317;DHT22;9284;52.298;21.164;2023-04-03T12:59:13;6.10;80.70
18317;DHT22;9284;52.298;21.164;2023-04-03T13:01:43;6.30;75.70
18317;DHT22;9284;52.298;21.164;2023-04-03T13:04:11;6.10;73.90
18317;DHT22;9284;52.298;21.164;2023-04-03T13:06:43;5.80;75.80
18317;DHT22;9284;52.298;21.164;2023-04-03T13:09:20;5.60;76.60
18317;DHT22;9284;52.298;21.164;2023-04-03T13:11:51;6.00;80.60
18317;DHT22;9284;52.298;21.164;2023-04-03T13:14:23;6.20;79.20
18317;DHT22;9284;52.298;21.164;2023-04-03T13:16:56;6.20;82.20
18317;DHT22;9284;52.298;21.164;2023-04-03T13:19:27;6.10;81.20
18317;DHT22;9284;52.298;21.164;2023-04-03T13:22:01;5.90;74.30
18317;DHT22;9284;52.298;21.164;2023-04-03T13:24:33;5.80;75.30
18317;DHT22;9284;52.298;21.164;2023-04-03T13:27:03;5.60;70.40
18317;DHT22;9284;52.298;21.164;2023-04-03T13:29:34;5.80;68.80
18317;DHT22;9284;52.298;21.164;2023-04-03T13:32:03;5.80;72.50
18317;DHT22;9284;52.298;21.164;2023-04-03T13:34:36;5.70;72.30
18317;DHT22;9284;52.298;21.164;2023-04-03T13:37:11;5.70;90.50
18317;DHT22;9284;52.298;21.164;2023-04-03T13:39:58;5.70;68.30
18317;DHT22;9284;52.298;21.164;2023-04-03T13:42:29;5.80;73.40
18317;DHT22;9284;52.298;21.164;2023-04-03T13:45:17;6.00;69.90
18317;DHT22;9284;52.298;21.164;2023-04-03T13:47:48;6.00;71.60
18317;DHT22;9284;52.298;21.164;2023-04-03T13:50:19;6.00;76.90
18317;DHT22;9284;52.298;21.164;2023-04-03T13:52:52;5.80;80.60
18317;DHT22;9284;52.298;21.164;2023-04-03T13:55:24;5.80;77.20
18317;DHT22;9284;52.298;21.164;2023-04-03T13:57:56;5.80;72.50
18317;DHT22;9284;52.298;21.164;2023-04-03T14:00:36;5.80;73.80
18317;DHT22;9284;52.298;21.164;2023-04-03T14:03:13;5.70;74.50
18317;DHT22;9284;52.298;21.164;2023-04-03T14:05:42;5.90;78.60
18317;DHT22;9284;52.298;21.164;2023-04-03T14:08:13;5.90;72.90
18317;DHT22;9284;52.298;21.164;2023-04-03T14:10:42;5.90;79.00
18317;DHT22;9284;52.298;21.164;2023-04-03T14:13:12;5.70;79.60
18317;DHT22;9284;52.298;21.164;2023-04-03T14:15:41;5.40;74.80
18317;DHT22;9284;52.298;21.164;2023-04-03T14:18:11;5.40;72.40
18317;DHT22;9284;52.298;21.164;2023-04-03T14:20:40;5.40;73.90
18317;DHT22;9284;52.298;21.164;2023-04-03T14:23:08;5.50;71.20
18317;DHT22;9284;52.298;21.164;2023-04-03T14:25:41;5.50;68.50
18317;DHT22;9284;52.298;21.164;2023-04-03T14:28:17;5.60;73.40
18317;DHT22;9284;52.298;21.164;2023-04-03T14:30:46;5.70;71.50
18317;DHT22;9284;52.298;21.164;2023-04-03T14:33:17;5.60;67.10
18317;DHT22;9284;52.298;21.164;2023-04-03T14:35:46;5.50;66.20
18317;DHT22;9284;52.298;21.164;2023-04-03T14:38:22;5.40;66.40
18317;DHT22;9284;52.298;21.164;2023-04-03T14:40:54;5.30;66.80
18317;DHT22;9284;52.298;21.164;2023-04-03T14:43:32;5.30;64.30
18317;DHT22;9284;52.298;21.164;2023-04-03T14:46:00;5.40;63.80
18317;DHT22;9284;52.298;21.164;2023-04-03T14:48:29;5.40;64.40
18317;DHT22;9284;52.298;21.164;2023-04-03T14:50:58;5.40;63.30
18317;DHT22;9284;52.298;21.164;2023-04-03T14:53:32;5.40;63.90
18317;DHT22;9284;52.298;21.164;2023-04-03T14:56:11;5.40;62.50
18317;DHT22;9284;52.298;21.164;2023-04-03T14:58:40;5.40;63.30
18317;DHT22;9284;52.298;21.164;2023-04-03T15:01:10;5.30;57.80
18317;DHT22;9284;52.298;21.164;2023-04-03T15:03:38;5.20;66.50
18317;DHT22;9284;52.298;21.164;2023-04-03T15:06:09;5.30;63.50
18317;DHT22;9284;52.298;21.164;2023-04-03T15:08:38;5.30;64.40
18317;DHT22;9284;52.298;21.164;2023-04-03T15:11:10;5.20;63.80
18317;DHT22;9284;52.298;21.164;2023-04-03T15:13:39;5.20;60.40
18317;DHT22;9284;52.298;21.164;2023-04-03T15:16:14;5.20;62.20
18317;DHT22;9284;52.298;21.164;2023-04-03T15:18:46;5.20;58.00
18317;DHT22;9284;52.298;21.164;2023-04-03T15:21:15;5.10;57.10
18317;DHT22;9284;52.298;21.164;2023-04-03T15:23:43;5.20;54.20
18317;DHT22;9284;52.298;21.164;2023-04-03T15:26:13;5.10;56.60
18317;DHT22;9284;52.298;21.164;2023-04-03T15:28:42;5.10;53.60
18317;DHT22;9284;52.298;21.164;2023-04-03T15:31:11;5.00;52.80
18317;DHT22;9284;52.298;21.164;2023-04-03T15:33:39;5.00;51.50
18317;DHT22;9284;52.298;21.164;2023-04-03T15:36:08;4.90;52.10
18317;DHT22;9284;52.298;21.164;2023-04-03T15:38:57;4.90;54.60
18317;DHT22;9284;52.298;21.164;2023-04-03T15:41:26;4.80;49.40
18317;DHT22;9284;52.298;21.164;2023-04-03T15:43:55;4.80;55.30
18317;DHT22;9284;52.298;21.164;2023-04-03T15:46:23;4.80;51.20
18317;DHT22;9284;52.298;21.164;2023-04-03T15:48:53;4.80;56.30
18317;DHT22;9284;52.298;21.164;2023-04-03T15:51:21;4.80;57.50
18317;DHT22;9284;52.298;21.164;2023-04-03T15:53:50;4.70;50.50
18317;DHT22;9284;52.298;21.164;2023-04-03T15:56:18;4.70;53.40
18317;DHT22;9284;52.298;21.164;2023-04-03T15:58:48;4.70;54.80
18317;DHT22;9284;52.298;21.164;2023-04-03T16:01:17;4.70;51.40
18317;DHT22;9284;52.298;21.164;2023-04-03T16:03:46;4.60;58.60
18317;DHT22;9284;52.298;21.164;2023-04-03T16:06:15;4.60;59.30
18317;DHT22;9284;52.298;21.164;2023-04-03T16:08:46;4.50;59.90
18317;DHT22;9284;52.298;21.164;2023-04-03T16:11:21;4.50;72.00
18317;DHT22;9284;52.298;21.164;2023-04-03T16:13:51;4.50;61.50
18317;DHT22;9284;52.298;21.164;2023-04-03T16:16:19;4.50;60.20
18317;DHT22;9284;52.298;21.164;2023-04-03T16:18:48;4.50;63.30
18317;DHT22;9284;52.298;21.164;2023-04-03T16:21:17;4.40;55.60
18317;DHT22;9284;52.298;21.164;2023-04-03T16:23:48;4.40;55.50
18317;DHT22;9284;52.298;21.164;2023-04-03T16:26:16;4.40;51.70
18317;DHT22;9284;52.298;21.164;2023-04-03T16:28:45;4.40;52.60
18317;DHT22;9284;52.298;21.164;2023-04-03T16:31:15;4.40;55.10
18317;DHT22;9284;52.298;21.164;2023-04-03T16:33:45;4.30;38.00
18317;DHT22;9284;52.298;21.164;2023-04-03T16:36:13;4.30;35.60
18317;DHT22;9284;52.298;21.164;2023-04-03T16:38:42;4.20;40.00
18317;DHT22;9284;52.298;21.164;2023-04-03T16:41:10;4.20;35.70
18317;DHT22;9284;52.298;21.164;2023-04-03T16:43:38;4.20;33.60
18317;DHT22;9284;52.298;21.164;2023-04-03T16:46:07;4.10;31.40
18317;DHT22;9284;52.298;21.164;2023-04-03T16:48:39;4.10;33.30
18317;DHT22;9284;52.298;21.164;2023-04-03T16:51:08;4.10;34.50
18317;DHT22;9284;52.298;21.164;2023-04-03T16:53:36;4.00;35.00
18317;DHT22;9284;52.298;21.164;2023-04-03T16:56:05;4.00;29.00
18317;DHT22;9284;52.298;21.164;2023-04-03T16:58:33;4.00;27.90
18317;DHT22;9284;52.298;21.164;2023-04-03T17:01:09;3.90;27.00
18317;DHT22;9284;52.298;21.164;2023-04-03T17:03:39;3.90;32.30
18317;DHT22;9284;52.298;21.164;2023-04-03T17:06:07;3.90;20.90
18317;DHT22;9284;52.298;21.164;2023-04-03T17:08:41;3.90;21.30
18317;DHT22;9284;52.298;21.164;2023-04-03T17:11:13;3.80;47.90
18317;DHT22;9284;52.298;21.164;2023-04-03T17:13:41;3.90;25.30
18317;DHT22;9284;52.298;21.164;2023-04-03T17:16:13;3.80;23.40
18317;DHT22;9284;52.298;21.164;2023-04-03T17:18:43;3.70;22.80
18317;DHT22;9284;52.298;21.164;2023-04-03T17:21:13;3.60;13.80
18317;DHT22;9284;52.298;21.164;2023-04-03T17:23:45;3.70;17.00
18317;DHT22;9284;52.298;21.164;2023-04-03T17:26:16;3.70;16.60
18317;DHT22;9284;52.298;21.164;2023-04-03T17:28:44;3.60;12.20
18317;DHT22;9284;52.298;21.164;2023-04-03T17:31:13;3.60;8.00
18317;DHT22;9284;52.298;21.164;2023-04-03T17:33:42;3.60;8.20
18317;DHT22;9284;52.298;21.164;2023-04-03T17:36:11;3.60;5.50
18317;DHT22;9284;52.298;21.164;2023-04-03T17:38:39;3.50;1.00
18317;DHT22;9284;52.298;21.164;2023-04-03T17:41:08;3.50;1.60
18317;DHT22;9284;52.298;21.164;2023-04-03T17:43:37;3.50;2.70
18317;DHT22;9284;52.298;21.164;2023-04-03T17:46:08;3.50;1.00
18317;DHT22;9284;52.298;21.164;2023-04-03T17:48:44;3.50;1.00
18317;DHT22;9284;52.298;21.164;2023-04-03T17:51:14;3.50;1.00
18317;DHT22;9284;52.298;21.164;2023-04-03T17:53:43;3.50;4.40
18317;DHT22;9284;52.298;21.164;2023-04-03T17:56:13;3.50;1.00
18317;DHT22;9284;52.298;21.164;2023-04-03T17:58:42;3.40;1.00
18317;DHT22;9284;52.298;21.164;2023-04-03T18:01:12;3.40;1.00
18317;DHT22;9284;52.298;21.164;2023-04-03T18:03:41;3.40;1.00
18317;DHT22;9284;52.298;21.164;2023-04-03T18:06:19;3.40;1.00
18317;DHT22;9284;52.298;21.164;2023-04-03T18:08:50;3.40;1.00
18317;DHT22;9284;52.298;21.164;2023-04-03T18:11:22;3.30;1.00
18317;DHT22;9284;52.298;21.164;2023-04-03T18:13:54;3.30;1.00
18317;DHT22;9284;52.298;21.164;2023-04-03T18:16:27;3.30;3.30
18317;DHT22;9284;52.298;21.164;2023-04-03T18:18:55;3.30;1.00
18317;DHT22;9284;52.298;21.164;2023-04-03T18:21:45;3.40;1.00
18317;DHT22;9284;52.298;21.164;2023-04-03T18:24:16;3.30;1.00
18317;DHT22;9284;52.298;21.164;2023-04-03T18:26:48;3.30;1.00
18317;DHT22;9284;52.298;21.164;2023-04-03T18:29:17;3.30;1.00
18317;DHT22;9284;52.298;21.164;2023-04-03T18:31:48;3.30;1.00
18317;DHT22;9284;52.298;21.164;2023-04-03T18:34:17;3.30;1.00
18317;DHT22;9284;52.298;21.164;2023-04-03T18:36:47;3.30;1.00
18317;DHT22;9284;52.298;21.164;2023-04-03T18:39:17;3.30;1.00
18317;DHT22;9284;52.298;21.164;2023-04-03T18:41:46;3.20;1.00
18317;DHT22;9284;52.298;21.164;2023-04-03T18:44:16;3.20;1.00
18317;DHT22;9284;52.298;21.164;2023-04-03T18:46:45;3.20;1.00
18317;DHT22;9284;52.298;21.164;2023-04-03T18:49:14;3.20;1.00
18317;DHT22;9284;52.298;21.164;2023-04-03T18:51:44;3.10;1.00
18317;DHT22;9284;52.298;21.164;2023-04-03T18:54:14;3.10;1.00
18317;DHT22;9284;52.298;21.164;2023-04-03T18:56:47;3.10;1.00
18317;DHT22;9284;52.298;21.164;2023-04-03T18:59:21;3.00;1.00
18317;DHT22;9284;52.298;21.164;2023-04-03T19:01:56;3.00;1.00
18317;DHT22;9284;52.298;21.164;2023-04-03T19:04:29;3.00;1.00
18317;DHT22;9284;52.298;21.164;2023-04-03T19:07:00;2.90;1.00
18317;DHT22;9284;52.298;21.164;2023-04-03T19:09:33;2.90;1.00
18317;DHT22;9284;52.298;21.164;2023-04-03T19:12:01;2.90;1.00
18317;DHT22;9284;52.298;21.164;2023-04-03T19:14:29;2.70;1.00
18317;DHT22;9284;52.298;21.164;2023-04-03T19:16:58;2.80;1.00
18317;DHT22;9284;52.298;21.164;2023-04-03T19:19:29;2.70;1.00
18317;DHT22;9284;52.298;21.164;2023-04-03T19:21:57;2.70;1.00
18317;DHT22;9284;52.298;21.164;2023-04-03T19:24:25;2.70;1.00
18317;DHT22;9284;52.298;21.164;2023-04-03T19:26:55;2.70;1.00
18317;DHT22;9284;52.298;21.164;2023-04-03T19:29:24;2.70;1.00
18317;DHT22;9284;52.298;21.164;2023-04-03T19:31:52;2.60;2.00
18317;DHT22;9284;52.298;21.164;2023-04-03T19:34:20;2.50;1.00
18317;DHT22;9284;52.298;21.164;2023-04-03T19:36:49;2.60;1.00
18317;DHT22;9284;52.298;21.164;2023-04-03T19:39:18;2.60;1.00